Madeline — WDE3220 — position and weather

sailwx.info

Track history (hours):
 
Tides and Currents Weather Stations Pressure Air Temp Water Temp Dewpoint Dewpoint Depression Visibility Wind Speed Wind Dir Waves Ship Positions

Madeline

Owner: TUG MADELINE, LLC, NEW CASTLE, DE. More information available from US FCC via Universal Licensing System and Coast Guard Vessel Documentation Center.

Last reported at 2015-Jul-02 16:33 UTC. Time now 2015-Jul-02 16:35 UTC.
Position N 39°51' W 075°16'.

; draft 4.6 m.

Type: Tug. MMSI: 367335830.

Date/timePositionNaut miles runAvg speedWind from/ knotsBaromVisibWave heightAir tempDewpointWater temp
2015-Jul-02 16:33N 39°51' W 075°16'0 0.0
2015-Jul-02 15:33N 39°51' W 075°16'0 0.0
2015-Jul-02 14:33N 39°51' W 075°16'0 0.3
2015-Jul-02 13:33N 39°51' W 075°16'0 0.3
2015-Jul-02 12:34N 39°51' W 075°16'2 2.4
2015-Jul-02 11:33N 39°52' W 075°13'1 1.3
2015-Jul-02 10:33N 39°51' W 075°14'1 0.8
2015-Jul-02 09:33N 39°52' W 075°14'2 2.3
2015-Jul-02 08:33N 39°53' W 075°11'0 0.0
2015-Jul-02 07:33N 39°53' W 075°11'0 0.0
2015-Jul-02 06:33N 39°53' W 075°11'0 0.0
2015-Jul-02 05:33N 39°53' W 075°11'1 0.5
2015-Jul-02 04:33N 39°53' W 075°10'1 0.5
2015-Jul-02 03:33N 39°53' W 075°11'0 0.0
2015-Jul-02 02:33N 39°53' W 075°11'0 0.0
2015-Jul-02 01:33N 39°53' W 075°11'4 3.8
2015-Jul-02 00:33N 39°56' W 075°08'4 3.5
2015-Jul-01 23:33N 39°59' W 075°05'0 0.5
2015-Jul-01 22:33N 39°59' W 075°05'0 0.0
2015-Jul-01 21:34N 39°59' W 075°05'4 3.9
2015-Jul-01 20:34N 39°55' W 075°08'1 1.5
2015-Jul-01 19:34N 39°54' W 075°08'0 0.0
2015-Jul-01 18:34N 39°54' W 075°08'0 0.0
2015-Jul-01 17:33N 39°54' W 075°08'0 0.0
2015-Jul-01 16:33N 39°54' W 075°08'0 0.0
2015-Jul-01 15:34N 39°54' W 075°08'0 0.0
2015-Jul-01 14:33N 39°54' W 075°08'0 0.0
2015-Jul-01 13:33N 39°54' W 075°08'0 0.0
2015-Jul-01 12:33N 39°54' W 075°08'0 0.3
2015-Jul-01 11:33N 39°54' W 075°08'1 1.4
2015-Jul-01 10:33N 39°53' W 075°09'1 1.1
2015-Jul-01 09:34N 39°54' W 075°08'0 0.0
2015-Jul-01 08:33N 39°54' W 075°08'0 0.0
2015-Jul-01 07:34N 39°54' W 075°08'2 1.9
2015-Jul-01 06:34N 39°56' W 075°08'4 3.8
2015-Jul-01 05:33N 39°59' W 075°05'7 6.7
2015-Jul-01 04:34N 39°53' W 075°09'1 1.5
2015-Jul-01 03:34N 39°53' W 075°11'0 0.0
2015-Jul-01 02:33N 39°53' W 075°11'0 0.1
2015-Jul-01 01:33N 39°53' W 075°11'1111.0
2015-Jul-01 00:33N 39°49' W 075°24'0 0.1
2015-Jun-30 23:33N 39°49' W 075°24'5 5.3
2015-Jun-30 22:33N 39°45' W 075°29'2 2.3
2015-Jun-30 21:33N 39°43' W 075°31'0 0.0
2015-Jun-30 20:33N 39°43' W 075°31'0 0.0
2015-Jun-30 19:33N 39°43' W 075°31'2 2.5
2015-Jun-30 18:33N 39°41' W 075°32'6 6.3
2015-Jun-30 17:33N 39°35' W 075°35'9 1.7
2015-Jun-30 12:32N 39°43' W 075°31'0 0.0
2015-Jun-30 11:34N 39°43' W 075°31'0 0.0
2015-Jun-30 10:33N 39°43' W 075°31'49 3.5
2015-Jun-29 20:33N 38°57' W 075°11'1 1.0
2015-Jun-29 19:33N 38°58' W 075°11'1 1.3
2015-Jun-29 18:32N 38°59' W 075°13'0 0.0
2015-Jun-29 17:33N 38°59' W 075°13'0 0.0
2015-Jun-29 15:10N 38°59' W 075°13'0 0.0
2015-Jun-29 14:33N 38°59' W 075°13'0 0.0
2015-Jun-29 13:32N 38°59' W 075°13'0 0.1
2015-Jun-29 12:14N 38°59' W 075°13'0 0.1
2015-Jun-29 11:27N 38°59' W 075°13'6 7.0
2015-Jun-29 10:33N 38°55' W 075°06'5111.5
2015-Jun-29 06:05N 39°43' W 075°31'610.6
2015-Jun-29 05:33N 39°47' W 075°27'7 7.1
2015-Jun-29 04:34N 39°51' W 075°19'2 1.9
2015-Jun-29 03:34N 39°50' W 075°21'4 4.1
2015-Jun-29 02:33N 39°48' W 075°26'0 0.2
2015-Jun-29 01:33N 39°48' W 075°26'6 6.0
2015-Jun-29 00:32N 39°43' W 075°31'0 0.0
2015-Jun-28 23:30N 39°43' W 075°31'0 0.0
2015-Jun-28 22:32N 39°43' W 075°31'0 0.0
2015-Jun-28 21:33N 39°43' W 075°31'0 0.0
2015-Jun-28 20:29N 39°43' W 075°31'0 0.0
2015-Jun-28 19:31N 39°43' W 075°31'0 0.0
2015-Jun-28 18:33N 39°43' W 075°31'0 0.0
2015-Jun-28 17:33N 39°43' W 075°31'0 0.0
2015-Jun-28 16:33N 39°43' W 075°31'0 0.0
2015-Jun-28 15:34N 39°43' W 075°31'0 0.0
2015-Jun-28 14:33N 39°43' W 075°31'0 0.0
2015-Jun-28 13:32N 39°43' W 075°31'0 0.0
2015-Jun-28 12:28N 39°43' W 075°31'0 0.1
2015-Jun-28 11:19N 39°43' W 075°31'2 1.9
2015-Jun-28 10:29N 39°41' W 075°31'2 1.6
2015-Jun-28 09:27N 39°43' W 075°31'0 0.0
2015-Jun-28 08:08N 39°43' W 075°31'0 0.0
2015-Jun-28 07:23N 39°43' W 075°31'1 0.5
2015-Jun-28 05:33N 39°42' W 075°31'4510.1
2015-Jun-28 01:05N 38°60' W 075°13'0 0.3
2015-Jun-28 00:33N 38°60' W 075°13'2 0.8
2015-Jun-27 22:28N 38°58' W 075°12'0 0.1
2015-Jun-27 21:22N 38°58' W 075°12'0 0.0
2015-Jun-27 19:27N 38°58' W 075°12'0 0.0
2015-Jun-27 18:26N 38°58' W 075°12'1 0.2
2015-Jun-27 13:19N 38°57' W 075°12'4 4.6
2015-Jun-27 12:32N 38°57' W 075°07'49 9.7
2015-Jun-27 07:33N 39°42' W 075°31'8 8.0
2015-Jun-27 06:33N 39°49' W 075°24'0 0.2
2015-Jun-27 05:33N 39°49' W 075°24'8 7.6
2015-Jun-27 04:34N 39°51' W 075°15'2 1.5
2015-Jun-27 03:33N 39°52' W 075°13'0 0.2
2015-Jun-27 02:33N 39°52' W 075°13'2 2.5
2015-Jun-27 01:33N 39°51' W 075°16'7 7.0
2015-Jun-27 00:33N 39°49' W 075°25'0 0.0
2015-Jun-26 23:33N 39°49' W 075°25'0 0.0
2015-Jun-26 22:33N 39°49' W 075°25'0 0.0
2015-Jun-26 21:33N 39°49' W 075°25'0 0.0
2015-Jun-26 20:33N 39°49' W 075°25'0 0.0
2015-Jun-26 19:33N 39°49' W 075°25'0 0.0
2015-Jun-26 18:33N 39°49' W 075°25'0 0.0
2015-Jun-26 17:33N 39°49' W 075°25'0 0.0
2015-Jun-26 16:33N 39°49' W 075°25'0 0.0
2015-Jun-26 15:33N 39°49' W 075°25'0 0.0
2015-Jun-26 14:33N 39°49' W 075°25'0 0.0
2015-Jun-26 13:33N 39°49' W 075°25'0 0.0
2015-Jun-26 12:33N 39°49' W 075°25'0 0.5
2015-Jun-26 11:33N 39°49' W 075°24'0 0.1
2015-Jun-26 10:33N 39°49' W 075°24'1 1.3
2015-Jun-26 09:33N 39°48' W 075°26'6 6.3
2015-Jun-26 08:33N 39°43' W 075°31'0 0.0
2015-Jun-26 07:32N 39°43' W 075°31'0 0.0
2015-Jun-26 06:33N 39°43' W 075°31'0 0.0
2015-Jun-26 05:32N 39°43' W 075°31'0 0.0
2015-Jun-26 04:32N 39°43' W 075°31'9 2.1
2015-Jun-26 00:10N 39°34' W 075°33'41 4.3
2015-Jun-25 14:33N 38°57' W 075°09'1 1.1
2015-Jun-25 13:22N 38°56' W 075°10'0 0.0
2015-Jun-25 12:33N 38°56' W 075°10'0 0.0
2015-Jun-25 11:33N 38°56' W 075°10'0 0.0
2015-Jun-25 10:29N 38°56' W 075°10'0 0.1
2015-Jun-25 09:32N 38°56' W 075°10'0 0.1
2015-Jun-25 08:33N 38°56' W 075°10'0 0.0
2015-Jun-25 07:30N 38°56' W 075°10'0 0.2
2015-Jun-25 06:33N 38°56' W 075°10'3 2.9
2015-Jun-25 05:31N 38°58' W 075°08'4711.0
2015-Jun-25 01:16N 39°41' W 075°31'1 0.1
2015-Jun-24 08:29N 39°43' W 075°31'0 0.0
2015-Jun-24 07:33N 39°43' W 075°31'0 0.0
2015-Jun-24 06:30N 39°43' W 075°31'0 0.0
2015-Jun-24 05:31N 39°43' W 075°31'0 0.0
2015-Jun-24 04:30N 39°43' W 075°31'0 0.0
2015-Jun-24 02:31N 39°43' W 075°31'0 0.0
2015-Jun-24 01:33N 39°43' W 075°31'0 0.0
2015-Jun-24 00:32N 39°43' W 075°31'9 7.7
2015-Jun-23 23:22N 39°49' W 075°23'910.7
2015-Jun-23 22:33N 39°52' W 075°12'1 1.2
2015-Jun-23 21:33N 39°53' W 075°11'0 0.0
2015-Jun-23 20:33N 39°53' W 075°11'0 0.0
2015-Jun-23 19:33N 39°53' W 075°11'0 0.0
2015-Jun-23 19:06N 39°53' W 075°11'0 0.0
2015-Jun-22 19:33N 39°53' W 075°11'0 0.0
2015-Jun-22 18:33N 39°53' W 075°11'0 0.0
2015-Jun-22 17:33N 39°53' W 075°11'0 0.0
2015-Jun-22 16:33N 39°53' W 075°11'  
Track history (hours):
 
Tides and Currents Weather Stations Pressure Air Temp Water Temp Dewpoint Dewpoint Depression Visibility Wind Speed Wind Dir Waves Ship Positions

Madeline

Owner: TUG MADELINE, LLC, NEW CASTLE, DE. More information available from US FCC via Universal Licensing System and Coast Guard Vessel Documentation Center.

Last reported at 2015-Jul-02 16:33 UTC. Time now 2015-Jul-02 16:35 UTC.
Position N 39°51' W 075°16'.

; draft 4.6 m.

Type: Tug. MMSI: 367335830.

Date/timePositionNaut miles runAvg speedWind from/ knotsBaromVisibWave heightAir tempDewpointWater temp
2015-Jul-02 16:33N 39°51' W 075°16'0 0.0
2015-Jul-02 15:33N 39°51' W 075°16'0 0.0
2015-Jul-02 14:33N 39°51' W 075°16'0 0.3
2015-Jul-02 13:33N 39°51' W 075°16'0 0.3
2015-Jul-02 12:34N 39°51' W 075°16'2 2.4
2015-Jul-02 11:33N 39°52' W 075°13'1 1.3
2015-Jul-02 10:33N 39°51' W 075°14'1 0.8
2015-Jul-02 09:33N 39°52' W 075°14'2 2.3
2015-Jul-02 08:33N 39°53' W 075°11'0 0.0
2015-Jul-02 07:33N 39°53' W 075°11'0 0.0
2015-Jul-02 06:33N 39°53' W 075°11'0 0.0
2015-Jul-02 05:33N 39°53' W 075°11'1 0.5
2015-Jul-02 04:33N 39°53' W 075°10'1 0.5
2015-Jul-02 03:33N 39°53' W 075°11'0 0.0
2015-Jul-02 02:33N 39°53' W 075°11'0 0.0
2015-Jul-02 01:33N 39°53' W 075°11'4 3.8
2015-Jul-02 00:33N 39°56' W 075°08'4 3.5
2015-Jul-01 23:33N 39°59' W 075°05'0 0.5
2015-Jul-01 22:33N 39°59' W 075°05'0 0.0
2015-Jul-01 21:34N 39°59' W 075°05'4 3.9
2015-Jul-01 20:34N 39°55' W 075°08'1 1.5
2015-Jul-01 19:34N 39°54' W 075°08'0 0.0
2015-Jul-01 18:34N 39°54' W 075°08'0 0.0
2015-Jul-01 17:33N 39°54' W 075°08'0 0.0
2015-Jul-01 16:33N 39°54' W 075°08'0 0.0
2015-Jul-01 15:34N 39°54' W 075°08'0 0.0
2015-Jul-01 14:33N 39°54' W 075°08'0 0.0
2015-Jul-01 13:33N 39°54' W 075°08'0 0.0
2015-Jul-01 12:33N 39°54' W 075°08'0 0.3
2015-Jul-01 11:33N 39°54' W 075°08'1 1.4
2015-Jul-01 10:33N 39°53' W 075°09'1 1.1
2015-Jul-01 09:34N 39°54' W 075°08'0 0.0
2015-Jul-01 08:33N 39°54' W 075°08'0 0.0
2015-Jul-01 07:34N 39°54' W 075°08'2 1.9
2015-Jul-01 06:34N 39°56' W 075°08'4 3.8
2015-Jul-01 05:33N 39°59' W 075°05'7 6.7
2015-Jul-01 04:34N 39°53' W 075°09'1 1.5
2015-Jul-01 03:34N 39°53' W 075°11'0 0.0
2015-Jul-01 02:33N 39°53' W 075°11'0 0.1
2015-Jul-01 01:33N 39°53' W 075°11'1111.0
2015-Jul-01 00:33N 39°49' W 075°24'0 0.1
2015-Jun-30 23:33N 39°49' W 075°24'5 5.3
2015-Jun-30 22:33N 39°45' W 075°29'2 2.3
2015-Jun-30 21:33N 39°43' W 075°31'0 0.0
2015-Jun-30 20:33N 39°43' W 075°31'0 0.0
2015-Jun-30 19:33N 39°43' W 075°31'2 2.5
2015-Jun-30 18:33N 39°41' W 075°32'6 6.3
2015-Jun-30 17:33N 39°35' W 075°35'9 1.7
2015-Jun-30 12:32N 39°43' W 075°31'0 0.0
2015-Jun-30 11:34N 39°43' W 075°31'0 0.0
2015-Jun-30 10:33N 39°43' W 075°31'49 3.5
2015-Jun-29 20:33N 38°57' W 075°11'1 1.0
2015-Jun-29 19:33N 38°58' W 075°11'1 1.3
2015-Jun-29 18:32N 38°59' W 075°13'0 0.0
2015-Jun-29 17:33N 38°59' W 075°13'0 0.0
2015-Jun-29 15:10N 38°59' W 075°13'0 0.0
2015-Jun-29 14:33N 38°59' W 075°13'0 0.0
2015-Jun-29 13:32N 38°59' W 075°13'0 0.1
2015-Jun-29 12:14N 38°59' W 075°13'0 0.1
2015-Jun-29 11:27N 38°59' W 075°13'6 7.0
2015-Jun-29 10:33N 38°55' W 075°06'5111.5
2015-Jun-29 06:05N 39°43' W 075°31'610.6
2015-Jun-29 05:33N 39°47' W 075°27'7 7.1
2015-Jun-29 04:34N 39°51' W 075°19'2 1.9
2015-Jun-29 03:34N 39°50' W 075°21'4 4.1
2015-Jun-29 02:33N 39°48' W 075°26'0 0.2
2015-Jun-29 01:33N 39°48' W 075°26'6 6.0
2015-Jun-29 00:32N 39°43' W 075°31'0 0.0
2015-Jun-28 23:30N 39°43' W 075°31'0 0.0
2015-Jun-28 22:32N 39°43' W 075°31'0 0.0
2015-Jun-28 21:33N 39°43' W 075°31'0 0.0
2015-Jun-28 20:29N 39°43' W 075°31'0 0.0
2015-Jun-28 19:31N 39°43' W 075°31'0 0.0
2015-Jun-28 18:33N 39°43' W 075°31'0 0.0
2015-Jun-28 17:33N 39°43' W 075°31'0 0.0
2015-Jun-28 16:33N 39°43' W 075°31'0 0.0
2015-Jun-28 15:34N 39°43' W 075°31'0 0.0
2015-Jun-28 14:33N 39°43' W 075°31'0 0.0
2015-Jun-28 13:32N 39°43' W 075°31'0 0.0
2015-Jun-28 12:28N 39°43' W 075°31'0 0.1
2015-Jun-28 11:19N 39°43' W 075°31'2 1.9
2015-Jun-28 10:29N 39°41' W 075°31'2 1.6
2015-Jun-28 09:27N 39°43' W 075°31'0 0.0
2015-Jun-28 08:08N 39°43' W 075°31'0 0.0
2015-Jun-28 07:23N 39°43' W 075°31'1 0.5
2015-Jun-28 05:33N 39°42' W 075°31'4510.1
2015-Jun-28 01:05N 38°60' W 075°13'0 0.3
2015-Jun-28 00:33N 38°60' W 075°13'2 0.8
2015-Jun-27 22:28N 38°58' W 075°12'0 0.1
2015-Jun-27 21:22N 38°58' W 075°12'0 0.0
2015-Jun-27 19:27N 38°58' W 075°12'0 0.0
2015-Jun-27 18:26N 38°58' W 075°12'1 0.2
2015-Jun-27 13:19N 38°57' W 075°12'4 4.6
2015-Jun-27 12:32N 38°57' W 075°07'49 9.7
2015-Jun-27 07:33N 39°42' W 075°31'8 8.0
2015-Jun-27 06:33N 39°49' W 075°24'0 0.2
2015-Jun-27 05:33N 39°49' W 075°24'8 7.6
2015-Jun-27 04:34N 39°51' W 075°15'2 1.5
2015-Jun-27 03:33N 39°52' W 075°13'0 0.2
2015-Jun-27 02:33N 39°52' W 075°13'2 2.5
2015-Jun-27 01:33N 39°51' W 075°16'7 7.0
2015-Jun-27 00:33N 39°49' W 075°25'0 0.0
2015-Jun-26 23:33N 39°49' W 075°25'0 0.0
2015-Jun-26 22:33N 39°49' W 075°25'0 0.0
2015-Jun-26 21:33N 39°49' W 075°25'0 0.0
2015-Jun-26 20:33N 39°49' W 075°25'0 0.0
2015-Jun-26 19:33N 39°49' W 075°25'0 0.0
2015-Jun-26 18:33N 39°49' W 075°25'0 0.0
2015-Jun-26 17:33N 39°49' W 075°25'0 0.0
2015-Jun-26 16:33N 39°49' W 075°25'0 0.0
2015-Jun-26 15:33N 39°49' W 075°25'0 0.0
2015-Jun-26 14:33N 39°49' W 075°25'0 0.0
2015-Jun-26 13:33N 39°49' W 075°25'0 0.0
2015-Jun-26 12:33N 39°49' W 075°25'0 0.5
2015-Jun-26 11:33N 39°49' W 075°24'0 0.1
2015-Jun-26 10:33N 39°49' W 075°24'1 1.3
2015-Jun-26 09:33N 39°48' W 075°26'6 6.3
2015-Jun-26 08:33N 39°43' W 075°31'0 0.0
2015-Jun-26 07:32N 39°43' W 075°31'0 0.0
2015-Jun-26 06:33N 39°43' W 075°31'0 0.0
2015-Jun-26 05:32N 39°43' W 075°31'0 0.0
2015-Jun-26 04:32N 39°43' W 075°31'9 2.1
2015-Jun-26 00:10N 39°34' W 075°33'41 4.3
2015-Jun-25 14:33N 38°57' W 075°09'1 1.1
2015-Jun-25 13:22N 38°56' W 075°10'0 0.0
2015-Jun-25 12:33N 38°56' W 075°10'0 0.0
2015-Jun-25 11:33N 38°56' W 075°10'0 0.0
2015-Jun-25 10:29N 38°56' W 075°10'0 0.1
2015-Jun-25 09:32N 38°56' W 075°10'0 0.1
2015-Jun-25 08:33N 38°56' W 075°10'0 0.0
2015-Jun-25 07:30N 38°56' W 075°10'0 0.2
2015-Jun-25 06:33N 38°56' W 075°10'3 2.9
2015-Jun-25 05:31N 38°58' W 075°08'4711.0
2015-Jun-25 01:16N 39°41' W 075°31'1 0.1
2015-Jun-24 08:29N 39°43' W 075°31'0 0.0
2015-Jun-24 07:33N 39°43' W 075°31'0 0.0
2015-Jun-24 06:30N 39°43' W 075°31'0 0.0
2015-Jun-24 05:31N 39°43' W 075°31'0 0.0
2015-Jun-24 04:30N 39°43' W 075°31'0 0.0
2015-Jun-24 02:31N 39°43' W 075°31'0 0.0
2015-Jun-24 01:33N 39°43' W 075°31'0 0.0
2015-Jun-24 00:32N 39°43' W 075°31'9 7.7
2015-Jun-23 23:22N 39°49' W 075°23'910.7
2015-Jun-23 22:33N 39°52' W 075°12'1 1.2
2015-Jun-23 21:33N 39°53' W 075°11'0 0.0
2015-Jun-23 20:33N 39°53' W 075°11'0 0.0
2015-Jun-23 19:33N 39°53' W 075°11'0 0.0
2015-Jun-23 19:06N 39°53' W 075°11'0 0.0
2015-Jun-22 19:33N 39°53' W 075°11'0 0.0
2015-Jun-22 18:33N 39°53' W 075°11'0 0.0
2015-Jun-22 17:33N 39°53' W 075°11'0 0.0
2015-Jun-22 16:33N 39°53' W 075°11'  

Dump ship's entire track history